DAL8778 TTPP-TNCA
Flight info
| Callsign | DAL8778 |
|---|---|
| Flight time | 1h 19m |
| Altitude | 34000 |
| Route | DCT POS UP671 MEGIR UL219 PJG/N0405F180 A574 IRLEP IRLEP2A |
| Aircraft | L101/H-SDFGHIRWXY/S |
Departure
| Time | 2026-04-27 01:08 |
|---|---|
| Airport | Piarco International Airport (TTPP) |
Arrival
| Time | 2026-04-27 02:27 |
|---|---|
| Airport | Queen Beatrix International Airport (TNCA) |
| Time | Latitude | Longitude | Altitude | Speed | Heading |
|---|---|---|---|---|---|
| 2026-04-27 00:53 | 10.60089 | -61.33825 | 71 ft | 0 kts | 319° |
| 2026-04-27 01:01 | 10.60088 | -61.33824 | 71 ft | 1 kts | 319° |
| 2026-04-27 01:01 | 10.60078 | -61.33814 | 71 ft | 3 kts | 315° |
| 2026-04-27 01:02 | 10.60066 | -61.33799 | 71 ft | 3 kts | 298° |
| 2026-04-27 01:02 | 10.60059 | -61.33780 | 71 ft | 3 kts | 282° |
| 2026-04-27 01:02 | 10.60057 | -61.33759 | 71 ft | 3 kts | 268° |
| 2026-04-27 01:02 | 10.60060 | -61.33740 | 71 ft | 1 kts | 254° |
| 2026-04-27 01:04 | 10.60054 | -61.33747 | 71 ft | 5 kts | 223° |
| 2026-04-27 01:04 | 10.59977 | -61.33746 | 71 ft | 13 kts | 177° |
| 2026-04-27 01:04 | 10.59846 | -61.33738 | 71 ft | 16 kts | 176° |
| 2026-04-27 01:04 | 10.59779 | -61.33752 | 71 ft | 15 kts | 219° |
| 2026-04-27 01:05 | 10.59758 | -61.33863 | 71 ft | 20 kts | 271° |
| 2026-04-27 01:05 | 10.59761 | -61.34144 | 71 ft | 57 kts | 270° |
| 2026-04-27 01:05 | 10.59751 | -61.34501 | 71 ft | 27 kts | 242° |
| 2026-04-27 01:05 | 10.59665 | -61.34618 | 71 ft | 21 kts | 254° |
| 2026-04-27 01:06 | 10.59661 | -61.34761 | 71 ft | 20 kts | 271° |
| 2026-04-27 01:06 | 10.59660 | -61.34912 | 71 ft | 28 kts | 269° |
| 2026-04-27 01:06 | 10.59657 | -61.35078 | 71 ft | 17 kts | 257° |
| 2026-04-27 01:06 | 10.59625 | -61.35115 | 71 ft | 0 kts | 203° |
| 2026-04-27 01:07 | 10.59612 | -61.35121 | 71 ft | 12 kts | 203° |
| 2026-04-27 01:07 | 10.59548 | -61.35128 | 71 ft | 7 kts | 137° |
| 2026-04-27 01:08 | 10.59534 | -61.35036 | 71 ft | 25 kts | 89° |
| 2026-04-27 01:08 | 10.59536 | -61.34544 | 71 ft | 118 kts | 90° |
| 2026-04-27 01:08 | 10.59534 | -61.33401 | 193 ft | 202 kts | 90° |
| 2026-04-27 01:08 | 10.59480 | -61.31793 | 1041 ft | 241 kts | 92° |
| 2026-04-27 01:09 | 10.59291 | -61.30244 | 1607 ft | 204 kts | 104° |
| 2026-04-27 01:09 | 10.58472 | -61.29151 | 1646 ft | 194 kts | 133° |
| 2026-04-27 01:09 | 10.57509 | -61.28233 | 2161 ft | 192 kts | 133° |
| 2026-04-27 01:09 | 10.56319 | -61.27512 | 2639 ft | 209 kts | 155° |
| 2026-04-27 01:10 | 10.54826 | -61.27454 | 3147 ft | 227 kts | 182° |
| 2026-04-27 01:10 | 10.53338 | -61.28120 | 3663 ft | 249 kts | 207° |
| 2026-04-27 01:10 | 10.51953 | -61.29320 | 4236 ft | 268 kts | 219° |
| 2026-04-27 01:10 | 10.50746 | -61.30763 | 4727 ft | 273 kts | 232° |
| 2026-04-27 01:11 | 10.49797 | -61.32496 | 5239 ft | 281 kts | 240° |
| 2026-04-27 01:11 | 10.48968 | -61.34284 | 5860 ft | 278 kts | 243° |
| 2026-04-27 01:11 | 10.48190 | -61.36064 | 6477 ft | 280 kts | 244° |
| 2026-04-27 01:11 | 10.47456 | -61.37913 | 7097 ft | 282 kts | 250° |
| 2026-04-27 01:12 | 10.47088 | -61.39889 | 7739 ft | 287 kts | 261° |
| 2026-04-27 01:12 | 10.47000 | -61.41922 | 8369 ft | 290 kts | 268° |
| 2026-04-27 01:12 | 10.47074 | -61.43964 | 8997 ft | 293 kts | 272° |
| 2026-04-27 01:12 | 10.47239 | -61.46030 | 9621 ft | 295 kts | 274° |
| 2026-04-27 01:13 | 10.47453 | -61.48109 | 10247 ft | 297 kts | 275° |
| 2026-04-27 01:13 | 10.47689 | -61.50215 | 10877 ft | 307 kts | 275° |
| 2026-04-27 01:13 | 10.47947 | -61.52475 | 11528 ft | 339 kts | 275° |
| 2026-04-27 01:13 | 10.48229 | -61.54999 | 12181 ft | 377 kts | 275° |
| 2026-04-27 01:14 | 10.48532 | -61.57757 | 12827 ft | 402 kts | 275° |
| 2026-04-27 01:14 | 10.48838 | -61.60551 | 13450 ft | 395 kts | 275° |
| 2026-04-27 01:14 | 10.49144 | -61.63350 | 14079 ft | 404 kts | 275° |
| 2026-04-27 01:14 | 10.49450 | -61.66170 | 14701 ft | 408 kts | 274° |
| 2026-04-27 01:15 | 10.49760 | -61.69055 | 15330 ft | 412 kts | 274° |
| 2026-04-27 01:15 | 10.50074 | -61.71996 | 15964 ft | 416 kts | 274° |
| 2026-04-27 01:15 | 10.50382 | -61.74903 | 16585 ft | 420 kts | 274° |
| 2026-04-27 01:15 | 10.50695 | -61.77877 | 17215 ft | 424 kts | 274° |
| 2026-04-27 01:16 | 10.51008 | -61.80865 | 17842 ft | 427 kts | 274° |
| 2026-04-27 01:16 | 10.51322 | -61.83882 | 18470 ft | 431 kts | 274° |
| 2026-04-27 01:16 | 10.51684 | -61.86917 | 19099 ft | 435 kts | 276° |
| 2026-04-27 01:16 | 10.52144 | -61.89967 | 19729 ft | 439 kts | 277° |
| 2026-04-27 01:17 | 10.52669 | -61.93036 | 20360 ft | 442 kts | 278° |
| 2026-04-27 01:17 | 10.53237 | -61.96121 | 20988 ft | 446 kts | 279° |
| 2026-04-27 01:17 | 10.53827 | -61.99194 | 21609 ft | 450 kts | 279° |
| 2026-04-27 01:17 | 10.54442 | -62.02324 | 22236 ft | 454 kts | 279° |
| 2026-04-27 01:18 | 10.55068 | -62.05484 | 22865 ft | 458 kts | 280° |
| 2026-04-27 01:18 | 10.55702 | -62.08668 | 23492 ft | 461 kts | 280° |
| 2026-04-27 01:18 | 10.56338 | -62.11860 | 24116 ft | 465 kts | 280° |
| 2026-04-27 01:18 | 10.56984 | -62.15105 | 24721 ft | 470 kts | 279° |
| 2026-04-27 01:19 | 10.57632 | -62.18373 | 25247 ft | 475 kts | 279° |
| 2026-04-27 01:19 | 10.58287 | -62.21692 | 25756 ft | 476 kts | 279° |
| 2026-04-27 01:19 | 10.58931 | -62.24964 | 26254 ft | 472 kts | 279° |
| 2026-04-27 01:19 | 10.59569 | -62.28210 | 26752 ft | 466 kts | 279° |
| 2026-04-27 01:20 | 10.60200 | -62.31433 | 27252 ft | 464 kts | 279° |
| 2026-04-27 01:20 | 10.60829 | -62.34654 | 27753 ft | 464 kts | 279° |
| 2026-04-27 01:20 | 10.61458 | -62.37887 | 28256 ft | 465 kts | 279° |
| 2026-04-27 01:20 | 10.62082 | -62.41107 | 28755 ft | 467 kts | 279° |
| 2026-04-27 01:21 | 10.62711 | -62.44365 | 29258 ft | 470 kts | 279° |
| 2026-04-27 01:21 | 10.63341 | -62.47637 | 29760 ft | 472 kts | 279° |
| 2026-04-27 01:21 | 10.63966 | -62.50887 | 30256 ft | 475 kts | 279° |
| 2026-04-27 01:21 | 10.64611 | -62.54243 | 30766 ft | 477 kts | 279° |
| 2026-04-27 01:22 | 10.65236 | -62.57502 | 31258 ft | 479 kts | 279° |
| 2026-04-27 01:22 | 10.65874 | -62.60825 | 31759 ft | 480 kts | 279° |
| 2026-04-27 01:22 | 10.66515 | -62.64166 | 32262 ft | 480 kts | 279° |
| 2026-04-27 01:22 | 10.67153 | -62.67496 | 32762 ft | 480 kts | 279° |
| 2026-04-27 01:23 | 10.67791 | -62.70834 | 33264 ft | 479 kts | 279° |
| 2026-04-27 01:23 | 10.68427 | -62.74152 | 33756 ft | 479 kts | 279° |
| 2026-04-27 01:23 | 10.69066 | -62.77495 | 33904 ft | 485 kts | 279° |
| 2026-04-27 01:24 | 10.70366 | -62.84325 | 33981 ft | 499 kts | 279° |
| 2026-04-27 01:24 | 10.71702 | -62.91347 | 33977 ft | 509 kts | 279° |
| 2026-04-27 01:25 | 10.73043 | -62.98394 | 33975 ft | 510 kts | 279° |
| 2026-04-27 01:25 | 10.74395 | -63.05487 | 33972 ft | 510 kts | 279° |
| 2026-04-27 01:26 | 10.75744 | -63.12573 | 33971 ft | 510 kts | 279° |
| 2026-04-27 01:26 | 10.77088 | -63.19647 | 33969 ft | 510 kts | 279° |
| 2026-04-27 01:27 | 10.78421 | -63.26692 | 33966 ft | 507 kts | 279° |
| 2026-04-27 01:27 | 10.79749 | -63.33699 | 33965 ft | 502 kts | 279° |
| 2026-04-27 01:28 | 10.81070 | -63.40669 | 33963 ft | 500 kts | 279° |
| 2026-04-27 01:28 | 10.82383 | -63.47613 | 33961 ft | 499 kts | 279° |
| 2026-04-27 01:29 | 10.83694 | -63.54560 | 33959 ft | 499 kts | 279° |
| 2026-04-27 01:29 | 10.84999 | -63.61490 | 33957 ft | 499 kts | 279° |
| 2026-04-27 01:30 | 10.86295 | -63.68387 | 33956 ft | 499 kts | 279° |
| 2026-04-27 01:30 | 10.87603 | -63.75351 | 33954 ft | 499 kts | 279° |
| 2026-04-27 01:31 | 10.88906 | -63.82303 | 33952 ft | 499 kts | 279° |
| 2026-04-27 01:31 | 10.90195 | -63.89192 | 33951 ft | 499 kts | 279° |
| 2026-04-27 01:32 | 10.91562 | -63.96103 | 33951 ft | 499 kts | 281° |
| 2026-04-27 01:32 | 10.93159 | -64.02977 | 33948 ft | 500 kts | 282° |
| 2026-04-27 01:33 | 10.94875 | -64.09845 | 33947 ft | 500 kts | 283° |
| 2026-04-27 01:33 | 10.96631 | -64.16694 | 33949 ft | 501 kts | 283° |
| 2026-04-27 01:34 | 10.98395 | -64.23540 | 33951 ft | 501 kts | 283° |
| 2026-04-27 01:34 | 11.00164 | -64.30428 | 33950 ft | 501 kts | 283° |
| 2026-04-27 01:35 | 11.01910 | -64.37271 | 33949 ft | 501 kts | 283° |
| 2026-04-27 01:35 | 11.03649 | -64.44129 | 33949 ft | 501 kts | 283° |
| 2026-04-27 01:36 | 11.05385 | -64.51014 | 33948 ft | 501 kts | 283° |
| 2026-04-27 01:36 | 11.07113 | -64.57898 | 33948 ft | 501 kts | 282° |
| 2026-04-27 01:37 | 11.08970 | -64.64733 | 33948 ft | 502 kts | 284° |
| 2026-04-27 01:37 | 11.11012 | -64.71544 | 33946 ft | 503 kts | 285° |
| 2026-04-27 01:38 | 11.13125 | -64.78320 | 33945 ft | 503 kts | 286° |
| 2026-04-27 01:38 | 11.15256 | -64.85069 | 33945 ft | 503 kts | 286° |
| 2026-04-27 01:39 | 11.17399 | -64.91843 | 33946 ft | 503 kts | 286° |
| 2026-04-27 01:39 | 11.19541 | -64.98633 | 33946 ft | 503 kts | 286° |
| 2026-04-27 01:40 | 11.21677 | -65.05427 | 33947 ft | 504 kts | 286° |
| 2026-04-27 01:40 | 11.23807 | -65.12225 | 33947 ft | 504 kts | 286° |
| 2026-04-27 01:41 | 11.25933 | -65.19035 | 33948 ft | 504 kts | 286° |
| 2026-04-27 01:41 | 11.27693 | -65.24685 | 33948 ft | 504 kts | 286° |
| 2026-04-27 01:42 | 11.30162 | -65.32629 | 33949 ft | 505 kts | 286° |
| 2026-04-27 01:42 | 11.32277 | -65.39444 | 33950 ft | 505 kts | 285° |
| 2026-04-27 01:43 | 11.34050 | -65.45164 | 33951 ft | 505 kts | 285° |
| 2026-04-27 01:43 | 11.36156 | -65.51966 | 33951 ft | 506 kts | 285° |
| 2026-04-27 01:44 | 11.38278 | -65.58829 | 33951 ft | 506 kts | 285° |
| 2026-04-27 01:44 | 11.40380 | -65.65635 | 33952 ft | 506 kts | 285° |
| 2026-04-27 01:45 | 11.42492 | -65.72484 | 33952 ft | 506 kts | 285° |
| 2026-04-27 01:45 | 11.44603 | -65.79333 | 33953 ft | 507 kts | 285° |
| 2026-04-27 01:46 | 11.46717 | -65.86193 | 33953 ft | 507 kts | 285° |
| 2026-04-27 01:46 | 11.48824 | -65.93035 | 33954 ft | 507 kts | 285° |
| 2026-04-27 01:47 | 11.50934 | -65.99897 | 33954 ft | 507 kts | 285° |
| 2026-04-27 01:47 | 11.53041 | -66.06767 | 33954 ft | 507 kts | 285° |
| 2026-04-27 01:48 | 11.55145 | -66.13630 | 33954 ft | 507 kts | 285° |
| 2026-04-27 01:48 | 11.57251 | -66.20493 | 33954 ft | 507 kts | 285° |
| 2026-04-27 01:49 | 11.59347 | -66.27325 | 33955 ft | 507 kts | 285° |
| 2026-04-27 01:49 | 11.61453 | -66.34198 | 33955 ft | 507 kts | 285° |
| 2026-04-27 01:50 | 11.63556 | -66.41071 | 33954 ft | 507 kts | 285° |
| 2026-04-27 01:50 | 11.65656 | -66.47946 | 33954 ft | 507 kts | 285° |
| 2026-04-27 01:51 | 11.67747 | -66.54801 | 33954 ft | 507 kts | 285° |
| 2026-04-27 01:51 | 11.69843 | -66.61675 | 33954 ft | 507 kts | 285° |
| 2026-04-27 01:52 | 11.71939 | -66.68542 | 33954 ft | 506 kts | 285° |
| 2026-04-27 01:52 | 11.74036 | -66.75411 | 33953 ft | 506 kts | 285° |
| 2026-04-27 01:53 | 11.76125 | -66.82267 | 33952 ft | 506 kts | 285° |
| 2026-04-27 01:53 | 11.78203 | -66.89063 | 33952 ft | 506 kts | 285° |
| 2026-04-27 01:54 | 11.80343 | -66.95913 | 33951 ft | 505 kts | 285° |
| 2026-04-27 01:54 | 11.82501 | -67.02729 | 33962 ft | 505 kts | 285° |
| 2026-04-27 01:55 | 11.84671 | -67.09548 | 33963 ft | 504 kts | 285° |
| 2026-04-27 01:55 | 11.86836 | -67.16358 | 33962 ft | 504 kts | 285° |
| 2026-04-27 01:56 | 11.90058 | -67.26526 | 33959 ft | 503 kts | 285° |
| 2026-04-27 01:56 | 11.92202 | -67.33317 | 33957 ft | 502 kts | 285° |
| 2026-04-27 01:57 | 11.94355 | -67.40154 | 33955 ft | 502 kts | 285° |
| 2026-04-27 01:57 | 11.96472 | -67.46879 | 33953 ft | 501 kts | 285° |
| 2026-04-27 01:58 | 11.98606 | -67.53658 | 33951 ft | 500 kts | 285° |
| 2026-04-27 01:58 | 12.00733 | -67.60425 | 33949 ft | 500 kts | 284° |
| 2026-04-27 01:59 | 12.02849 | -67.67164 | 33946 ft | 499 kts | 284° |
| 2026-04-27 01:59 | 12.04965 | -67.73920 | 33944 ft | 498 kts | 284° |
| 2026-04-27 02:00 | 12.07054 | -67.80674 | 33942 ft | 497 kts | 283° |
| 2026-04-27 02:00 | 12.08511 | -67.87552 | 33941 ft | 494 kts | 276° |
| 2026-04-27 02:01 | 12.09390 | -67.94466 | 33937 ft | 493 kts | 273° |
| 2026-04-27 02:01 | 12.10017 | -68.01443 | 33935 ft | 492 kts | 271° |
| 2026-04-27 02:02 | 12.10560 | -68.08399 | 33935 ft | 492 kts | 271° |
| 2026-04-27 02:02 | 12.11114 | -68.15370 | 33934 ft | 492 kts | 272° |
| 2026-04-27 02:03 | 12.11734 | -68.22337 | 33934 ft | 492 kts | 272° |
| 2026-04-27 02:03 | 12.12418 | -68.29254 | 33934 ft | 492 kts | 273° |
| 2026-04-27 02:04 | 12.13132 | -68.36211 | 33934 ft | 492 kts | 273° |
| 2026-04-27 02:04 | 12.13853 | -68.43163 | 33935 ft | 492 kts | 273° |
| 2026-04-27 02:05 | 12.14573 | -68.50118 | 33938 ft | 492 kts | 273° |
| 2026-04-27 02:05 | 12.15288 | -68.57088 | 33942 ft | 492 kts | 273° |
| 2026-04-27 02:06 | 12.15995 | -68.64041 | 33943 ft | 492 kts | 272° |
| 2026-04-27 02:06 | 12.16348 | -68.67536 | 33649 ft | 498 kts | 273° |
| 2026-04-27 02:06 | 12.16700 | -68.71040 | 33228 ft | 489 kts | 273° |
| 2026-04-27 02:07 | 12.16950 | -68.73504 | 32907 ft | 479 kts | 273° |
| 2026-04-27 02:07 | 12.17289 | -68.76862 | 32456 ft | 471 kts | 273° |
| 2026-04-27 02:07 | 12.17621 | -68.80163 | 32005 ft | 464 kts | 273° |
| 2026-04-27 02:07 | 12.17948 | -68.83422 | 31554 ft | 458 kts | 273° |
| 2026-04-27 02:08 | 12.18270 | -68.86645 | 31103 ft | 452 kts | 274° |
| 2026-04-27 02:08 | 12.18586 | -68.89824 | 30654 ft | 447 kts | 274° |
| 2026-04-27 02:08 | 12.18897 | -68.92976 | 30202 ft | 443 kts | 274° |
| 2026-04-27 02:08 | 12.19204 | -68.96090 | 29751 ft | 438 kts | 274° |
| 2026-04-27 02:09 | 12.19517 | -68.99139 | 29304 ft | 434 kts | 275° |
| 2026-04-27 02:09 | 12.20040 | -69.02172 | 28853 ft | 432 kts | 280° |
| 2026-04-27 02:09 | 12.20772 | -69.05140 | 28404 ft | 430 kts | 283° |
| 2026-04-27 02:09 | 12.21636 | -69.08060 | 27954 ft | 427 kts | 285° |
| 2026-04-27 02:10 | 12.22576 | -69.10931 | 27504 ft | 425 kts | 287° |
| 2026-04-27 02:10 | 12.23558 | -69.13769 | 27054 ft | 422 kts | 288° |
| 2026-04-27 02:10 | 12.24561 | -69.16595 | 26601 ft | 420 kts | 288° |
| 2026-04-27 02:10 | 12.25555 | -69.19374 | 26153 ft | 417 kts | 288° |
| 2026-04-27 02:11 | 12.26551 | -69.22162 | 25700 ft | 415 kts | 288° |
| 2026-04-27 02:11 | 12.27532 | -69.24933 | 25249 ft | 413 kts | 288° |
| 2026-04-27 02:11 | 12.28498 | -69.27698 | 24796 ft | 410 kts | 288° |
| 2026-04-27 02:11 | 12.29430 | -69.30403 | 24352 ft | 408 kts | 288° |
| 2026-04-27 02:12 | 12.30349 | -69.33162 | 23895 ft | 404 kts | 285° |
| 2026-04-27 02:12 | 12.30888 | -69.35975 | 23442 ft | 401 kts | 275° |
| 2026-04-27 02:12 | 12.31005 | -69.38815 | 22996 ft | 399 kts | 268° |
| 2026-04-27 02:12 | 12.30846 | -69.41600 | 22556 ft | 395 kts | 263° |
| 2026-04-27 02:13 | 12.30507 | -69.44388 | 22110 ft | 392 kts | 261° |
| 2026-04-27 02:13 | 12.30062 | -69.47121 | 21664 ft | 389 kts | 259° |
| 2026-04-27 02:13 | 12.29556 | -69.49836 | 21220 ft | 386 kts | 258° |
| 2026-04-27 02:13 | 12.29024 | -69.52522 | 20770 ft | 383 kts | 257° |
| 2026-04-27 02:14 | 12.28491 | -69.55174 | 20321 ft | 381 kts | 257° |
| 2026-04-27 02:14 | 12.27964 | -69.57826 | 19869 ft | 378 kts | 258° |
| 2026-04-27 02:14 | 12.27455 | -69.60449 | 19419 ft | 376 kts | 258° |
| 2026-04-27 02:14 | 12.27002 | -69.63079 | 18961 ft | 373 kts | 262° |
| 2026-04-27 02:15 | 12.26965 | -69.65739 | 18510 ft | 373 kts | 272° |
| 2026-04-27 02:15 | 12.27291 | -69.68364 | 18064 ft | 372 kts | 279° |
| 2026-04-27 02:15 | 12.27832 | -69.70904 | 17619 ft | 361 kts | 283° |
| 2026-04-27 02:15 | 12.28494 | -69.73341 | 17165 ft | 347 kts | 285° |
| 2026-04-27 02:16 | 12.29203 | -69.75643 | 16715 ft | 336 kts | 287° |
| 2026-04-27 02:16 | 12.29930 | -69.77858 | 16267 ft | 328 kts | 288° |
| 2026-04-27 02:16 | 12.30669 | -69.80047 | 15815 ft | 323 kts | 288° |
| 2026-04-27 02:16 | 12.31403 | -69.82197 | 15365 ft | 319 kts | 289° |
| 2026-04-27 02:17 | 12.32133 | -69.84340 | 14912 ft | 316 kts | 289° |
| 2026-04-27 02:17 | 12.32848 | -69.86451 | 14462 ft | 311 kts | 289° |
| 2026-04-27 02:17 | 12.33289 | -69.87760 | 14174 ft | 303 kts | 288° |
| 2026-04-27 02:17 | 12.33958 | -69.89760 | 13715 ft | 288 kts | 288° |
| 2026-04-27 02:18 | 12.34591 | -69.91661 | 13261 ft | 277 kts | 288° |
| 2026-04-27 02:18 | 12.35192 | -69.93481 | 12813 ft | 270 kts | 288° |
| 2026-04-27 02:18 | 12.35792 | -69.95304 | 12356 ft | 266 kts | 288° |
| 2026-04-27 02:18 | 12.36375 | -69.97085 | 11904 ft | 262 kts | 289° |
| 2026-04-27 02:19 | 12.36945 | -69.98828 | 11457 ft | 260 kts | 289° |
| 2026-04-27 02:19 | 12.37517 | -70.00583 | 11005 ft | 259 kts | 289° |
| 2026-04-27 02:19 | 12.38083 | -70.02321 | 10554 ft | 257 kts | 289° |
| 2026-04-27 02:19 | 12.38646 | -70.04048 | 10105 ft | 256 kts | 289° |
| 2026-04-27 02:20 | 12.39207 | -70.05775 | 9655 ft | 256 kts | 289° |
| 2026-04-27 02:20 | 12.39769 | -70.07500 | 9204 ft | 255 kts | 289° |
| 2026-04-27 02:20 | 12.40330 | -70.09228 | 8751 ft | 254 kts | 289° |
| 2026-04-27 02:20 | 12.40887 | -70.10942 | 8301 ft | 254 kts | 289° |
| 2026-04-27 02:21 | 12.41442 | -70.12652 | 7851 ft | 253 kts | 289° |
| 2026-04-27 02:21 | 12.41991 | -70.14343 | 7405 ft | 252 kts | 289° |
| 2026-04-27 02:21 | 12.42543 | -70.16042 | 6953 ft | 251 kts | 289° |
| 2026-04-27 02:21 | 12.43092 | -70.17735 | 6513 ft | 242 kts | 289° |
| 2026-04-27 02:22 | 12.43623 | -70.19293 | 6084 ft | 228 kts | 292° |
| 2026-04-27 02:22 | 12.44567 | -70.20535 | 5588 ft | 218 kts | 320° |
| 2026-04-27 02:22 | 12.45932 | -70.21146 | 5141 ft | 214 kts | 350° |
| 2026-04-27 02:22 | 12.47403 | -70.21136 | 4747 ft | 211 kts | 8° |
| 2026-04-27 02:23 | 12.48840 | -70.20931 | 4283 ft | 209 kts | 13° |
| 2026-04-27 02:23 | 12.50205 | -70.20534 | 3726 ft | 198 kts | 29° |
| 2026-04-27 02:23 | 12.51138 | -70.19572 | 3228 ft | 190 kts | 58° |
| 2026-04-27 02:23 | 12.51655 | -70.18349 | 2786 ft | 189 kts | 71° |
| 2026-04-27 02:24 | 12.52065 | -70.17089 | 2289 ft | 185 kts | 73° |
| 2026-04-27 02:24 | 12.52439 | -70.15876 | 2034 ft | 170 kts | 73° |
| 2026-04-27 02:24 | 12.52785 | -70.14747 | 2010 ft | 164 kts | 73° |
| 2026-04-27 02:24 | 12.53053 | -70.13611 | 1980 ft | 167 kts | 82° |
| 2026-04-27 02:25 | 12.52790 | -70.12445 | 2041 ft | 172 kts | 106° |
| 2026-04-27 02:25 | 12.52388 | -70.11263 | 1840 ft | 178 kts | 105° |
| 2026-04-27 02:25 | 12.52160 | -70.10038 | 1586 ft | 173 kts | 98° |
| 2026-04-27 02:25 | 12.51875 | -70.08831 | 1337 ft | 174 kts | 103° |
| 2026-04-27 02:26 | 12.51581 | -70.07685 | 1083 ft | 160 kts | 101° |
| 2026-04-27 02:26 | 12.51342 | -70.06608 | 860 ft | 151 kts | 101° |
| 2026-04-27 02:26 | 12.51091 | -70.05596 | 658 ft | 146 kts | 101° |
| 2026-04-27 02:26 | 12.50860 | -70.04600 | 464 ft | 143 kts | 101° |
| 2026-04-27 02:27 | 12.50623 | -70.03615 | 275 ft | 141 kts | 101° |
| 2026-04-27 02:27 | 12.50397 | -70.02655 | 99 ft | 132 kts | 100° |
| 2026-04-27 02:27 | 12.50250 | -70.01982 | 75 ft | 67 kts | 103° |
| 2026-04-27 02:27 | 12.50159 | -70.01605 | 75 ft | 43 kts | 104° |
| 2026-04-27 02:28 | 12.50102 | -70.01373 | 75 ft | 31 kts | 104° |
| 2026-04-27 02:28 | 12.50062 | -70.01206 | 75 ft | 18 kts | 104° |
| 2026-04-27 02:28 | 12.50047 | -70.01142 | 75 ft | 12 kts | 103° |
| 2026-04-27 02:28 | 12.50062 | -70.01025 | 75 ft | 11 kts | 44° |
| 2026-04-27 02:29 | 12.50124 | -70.01000 | 75 ft | 13 kts | 14° |
| 2026-04-27 02:29 | 12.50185 | -70.00979 | 75 ft | 12 kts | 27° |
| 2026-04-27 02:29 | 12.50226 | -70.00917 | 75 ft | 11 kts | 72° |
| 2026-04-27 02:29 | 12.50264 | -70.00883 | 75 ft | 7 kts | 22° |
| 2026-04-27 02:30 | 12.50293 | -70.00875 | 75 ft | 0 kts | 15° |